Time;durP1;ratioP1;P1;durP2;ratioP2;P2;SDS_P1;SDS_P2;PMS_P1;PMS_P2;Temp;Humidity;BMP_temperature;BMP_pressure;BME280_temperature;BME280_humidity;BME280_pressure;Samples;Min_cycle;Max_cycle;Signal;HPM_P1;HPM_P2
2023/12/26 00:00:22;;;;;;;1.90;1.30;;;;;;;;;;5034261;28;20254;-49
2023/12/26 00:02:48;;;;;;;2.30;1.53;;;;;;;;;;5039483;28;20192;-49
2023/12/26 00:05:14;;;;;;;1.93;1.30;;;;;;;;;;5039908;28;20288;-49
2023/12/26 00:07:42;;;;;;;1.20;1.20;;;;;;;;;;5042796;28;20200;-49
2023/12/26 00:10:08;;;;;;;4.17;3.57;;;;;;;;;;5039055;28;20217;-49
2023/12/26 00:12:34;;;;;;;1.20;1.10;;;;;;;;;;5038747;28;20251;-49
2023/12/26 00:15:00;;;;;;;1.43;1.20;;;;;;;;;;5041607;28;20200;-49
2023/12/26 00:17:26;;;;;;;0.90;0.90;;;;;;;;;;5046868;28;20235;-49
2023/12/26 00:19:53;;;;;;;1.80;0.83;;;;;;;;;;5041986;28;20188;-50
2023/12/26 00:22:19;;;;;;;1.13;0.80;;;;;;;;;;5036638;28;20201;-49
2023/12/26 00:24:48;;;;;;;0.70;0.70;;;;;;;;;;5049392;28;20204;-49
2023/12/26 00:27:15;;;;;;;0.70;0.70;;;;;;;;;;5048789;28;20223;-50
2023/12/26 00:29:41;;;;;;;0.83;0.77;;;;;;;;;;5050305;28;20318;-48
2023/12/26 00:32:07;;;;;;;0.70;0.70;;;;;;;;;;5044930;28;20624;-49
2023/12/26 00:34:33;;;;;;;0.50;0.50;;;;;;;;;;5051506;28;20200;-49
2023/12/26 00:36:59;;;;;;;0.60;0.60;;;;;;;;;;5052028;28;20200;-49
2023/12/26 00:39:25;;;;;;;0.60;0.60;;;;;;;;;;5050087;28;20224;-49
2023/12/26 00:41:52;;;;;;;0.60;0.60;;;;;;;;;;5066174;28;20222;-49
2023/12/26 00:44:18;;;;;;;0.70;0.70;;;;;;;;;;5068242;28;20286;-49
2023/12/26 00:46:46;;;;;;;0.80;0.80;;;;;;;;;;5067562;28;20231;-49
2023/12/26 00:49:12;;;;;;;0.63;0.63;;;;;;;;;;5065778;28;20685;-49
2023/12/26 00:51:38;;;;;;;0.90;0.77;;;;;;;;;;5064595;28;20214;-48
2023/12/26 00:54:05;;;;;;;0.67;0.67;;;;;;;;;;5071660;28;20187;-47
2023/12/26 00:56:31;;;;;;;0.70;0.70;;;;;;;;;;5071110;28;20223;-48
2023/12/26 00:58:58;;;;;;;1.30;0.80;;;;;;;;;;5071622;28;20198;-48
2023/12/26 01:01:24;;;;;;;0.70;0.70;;;;;;;;;;5071659;28;20660;-50
2023/12/26 01:03:50;;;;;;;1.00;1.00;;;;;;;;;;5069835;28;20207;-49
2023/12/26 01:06:16;;;;;;;0.90;0.90;;;;;;;;;;5064568;28;20206;-50
2023/12/26 01:08:44;;;;;;;0.80;0.80;;;;;;;;;;5034863;28;20701;-50
2023/12/26 01:11:13;;;;;;;0.70;0.70;;;;;;;;;;5022734;28;20247;-50
2023/12/26 01:13:39;;;;;;;0.80;0.80;;;;;;;;;;5021127;28;20288;-50
2023/12/26 01:16:07;;;;;;;0.80;0.80;;;;;;;;;;5024293;28;20224;-50
2023/12/26 01:18:33;;;;;;;0.90;0.90;;;;;;;;;;5028113;28;20227;-50
2023/12/26 01:20:59;;;;;;;0.73;0.73;;;;;;;;;;5028185;28;20735;-50
2023/12/26 01:23:26;;;;;;;0.60;0.60;;;;;;;;;;5026068;28;20280;-50
2023/12/26 01:25:52;;;;;;;0.77;0.70;;;;;;;;;;5027639;28;20686;-50
2023/12/26 01:28:19;;;;;;;1.47;0.90;;;;;;;;;;5029510;28;20196;-51
2023/12/26 01:30:44;;;;;;;0.70;0.70;;;;;;;;;;5031375;28;20230;-51
2023/12/26 01:33:12;;;;;;;0.80;0.80;;;;;;;;;;5031285;28;20205;-50
2023/12/26 01:35:38;;;;;;;0.90;0.90;;;;;;;;;;5031235;28;20213;-50
2023/12/26 01:38:04;;;;;;;4.70;4.30;;;;;;;;;;5031337;28;20238;-51
2023/12/26 01:40:30;;;;;;;1.30;1.20;;;;;;;;;;5026101;28;20622;-50
2023/12/26 01:42:56;;;;;;;0.90;0.90;;;;;;;;;;5027882;28;20203;-51
2023/12/26 01:45:22;;;;;;;1.07;1.07;;;;;;;;;;5024529;28;20694;-50
2023/12/26 01:47:49;;;;;;;1.03;1.00;;;;;;;;;;5034880;28;20236;-51
2023/12/26 01:50:19;;;;;;;0.93;0.93;;;;;;;;;;5034874;28;20753;-51
2023/12/26 01:52:45;;;;;;;0.80;0.80;;;;;;;;;;5035148;28;20205;-50
2023/12/26 01:55:13;;;;;;;0.80;0.80;;;;;;;;;;5034941;28;20197;-50
2023/12/26 01:57:39;;;;;;;0.90;0.90;;;;;;;;;;5034937;28;20216;-50
2023/12/26 02:00:07;;;;;;;1.17;1.00;;;;;;;;;;5027880;28;20551;-50
2023/12/26 02:02:33;;;;;;;1.00;1.00;;;;;;;;;;5029390;28;20552;-49
2023/12/26 02:04:59;;;;;;;1.50;1.40;;;;;;;;;;5034890;28;20193;-50
2023/12/26 02:07:27;;;;;;;1.57;1.47;;;;;;;;;;5029334;28;20201;-50
2023/12/26 02:09:53;;;;;;;1.23;1.20;;;;;;;;;;5029112;28;20670;-50
2023/12/26 02:12:19;;;;;;;1.37;1.27;;;;;;;;;;5026671;28;20279;-50
2023/12/26 02:14:45;;;;;;;1.20;1.20;;;;;;;;;;5033027;28;20205;-50
2023/12/26 02:17:13;;;;;;;1.27;1.17;;;;;;;;;;5034483;28;20221;-49
2023/12/26 02:19:42;;;;;;;1.10;1.10;;;;;;;;;;5034331;28;20224;-49
2023/12/26 02:22:08;;;;;;;0.93;0.93;;;;;;;;;;5034402;28;20596;-50
2023/12/26 02:24:35;;;;;;;0.70;0.70;;;;;;;;;;5029496;28;20250;-50
2023/12/26 02:27:02;;;;;;;0.80;0.80;;;;;;;;;;5030796;28;20304;-50
2023/12/26 02:29:28;;;;;;;0.90;0.90;;;;;;;;;;5030786;28;20225;-49
2023/12/26 02:31:55;;;;;;;1.80;0.90;;;;;;;;;;5028982;28;20203;-50
2023/12/26 02:34:21;;;;;;;0.60;0.60;;;;;;;;;;5030711;28;20227;-50
2023/12/26 02:36:48;;;;;;;1.90;1.00;;;;;;;;;;5032378;28;20203;-49
2023/12/26 02:39:14;;;;;;;0.80;0.80;;;;;;;;;;5032420;28;20201;-50
2023/12/26 02:41:42;;;;;;;0.70;0.70;;;;;;;;;;5030348;28;20201;-50
2023/12/26 02:44:08;;;;;;;0.60;0.60;;;;;;;;;;5026840;28;20937;-49
2023/12/26 02:46:36;;;;;;;1.93;0.73;;;;;;;;;;5029931;28;20284;-50
2023/12/26 02:49:02;;;;;;;1.03;0.80;;;;;;;;;;5028720;28;20220;-50
2023/12/26 02:51:28;;;;;;;1.20;1.10;;;;;;;;;;5032095;28;20606;-48
2023/12/26 02:53:54;;;;;;;1.20;1.10;;;;;;;;;;5026799;28;20196;-48
2023/12/26 02:56:20;;;;;;;1.10;1.10;;;;;;;;;;5031263;28;20284;-49
2023/12/26 02:58:48;;;;;;;1.00;0.90;;;;;;;;;;5028313;28;20719;-49
2023/12/26 03:01:14;;;;;;;1.30;1.20;;;;;;;;;;5033170;28;20208;-48
2023/12/26 03:03:40;;;;;;;1.10;1.10;;;;;;;;;;5027976;28;20204;-48
2023/12/26 03:06:07;;;;;;;1.43;0.90;;;;;;;;;;5028164;28;20793;-49
2023/12/26 03:08:33;;;;;;;0.90;0.90;;;;;;;;;;5026038;28;20209;-49
2023/12/26 03:10:59;;;;;;;1.00;1.00;;;;;;;;;;5028015;28;20201;-49
2023/12/26 03:13:25;;;;;;;1.23;1.13;;;;;;;;;;5033319;28;20668;-50
2023/12/26 03:15:52;;;;;;;1.77;1.10;;;;;;;;;;5033390;28;20201;-49
2023/12/26 03:18:20;;;;;;;0.50;0.50;;;;;;;;;;5033142;28;20232;-50
2023/12/26 03:20:46;;;;;;;1.30;0.70;;;;;;;;;;5033358;28;20192;-49
2023/12/26 03:23:12;;;;;;;0.77;0.73;;;;;;;;;;5033279;28;20212;-49
2023/12/26 03:25:38;;;;;;;1.00;0.50;;;;;;;;;;5032949;28;20283;-49
2023/12/26 03:28:04;;;;;;;0.77;0.67;;;;;;;;;;5033171;28;20613;-49
2023/12/26 03:30:32;;;;;;;1.10;0.70;;;;;;;;;;5033036;28;20323;-50
2023/12/26 03:32:59;;;;;;;0.50;0.50;;;;;;;;;;5033187;28;20200;-50
2023/12/26 03:35:25;;;;;;;0.40;0.40;;;;;;;;;;5032888;28;20205;-49
2023/12/26 03:37:51;;;;;;;0.70;0.70;;;;;;;;;;5033011;28;20205;-50
2023/12/26 03:40:17;;;;;;;0.47;0.47;;;;;;;;;;5032715;28;20537;-50
2023/12/26 03:42:45;;;;;;;0.50;0.50;;;;;;;;;;5032729;28;20201;-50
2023/12/26 03:45:11;;;;;;;1.33;0.70;;;;;;;;;;5032651;28;20198;-49
2023/12/26 03:47:37;;;;;;;0.50;0.50;;;;;;;;;;5032266;28;20233;-50
2023/12/26 03:50:07;;;;;;;0.93;0.70;;;;;;;;;;5032487;28;20287;-50
2023/12/26 03:52:33;;;;;;;1.80;0.70;;;;;;;;;;5032349;28;20214;-50
2023/12/26 03:54:59;;;;;;;0.73;0.60;;;;;;;;;;5032557;28;20193;-50
2023/12/26 03:57:25;;;;;;;2.10;0.90;;;;;;;;;;5032350;28;20192;-50
2023/12/26 03:59:51;;;;;;;0.50;0.50;;;;;;;;;;5032289;28;20652;-49
2023/12/26 04:02:17;;;;;;;0.50;0.50;;;;;;;;;;5032381;28;20207;-49
2023/12/26 04:04:44;;;;;;;0.67;0.63;;;;;;;;;;5032264;28;20663;-50
2023/12/26 04:07:11;;;;;;;0.80;0.60;;;;;;;;;;5032104;28;20710;-49
2023/12/26 04:09:37;;;;;;;0.50;0.50;;;;;;;;;;5031269;28;20217;-50
2023/12/26 04:12:03;;;;;;;0.53;0.53;;;;;;;;;;5039314;28;20200;-49
2023/12/26 04:14:29;;;;;;;0.67;0.67;;;;;;;;;;5051926;28;20212;-49
2023/12/26 04:16:55;;;;;;;0.80;0.80;;;;;;;;;;5051930;28;20220;-49
2023/12/26 04:19:22;;;;;;;0.93;0.70;;;;;;;;;;5051860;28;20742;-49
2023/12/26 04:21:48;;;;;;;0.93;0.90;;;;;;;;;;5051757;28;20200;-49
2023/12/26 04:24:15;;;;;;;0.80;0.80;;;;;;;;;;5052032;28;20207;-49
2023/12/26 04:26:41;;;;;;;0.70;0.70;;;;;;;;;;5051723;28;20196;-49
2023/12/26 04:29:07;;;;;;;2.47;1.23;;;;;;;;;;5051649;28;20219;-50
2023/12/26 04:31:33;;;;;;;2.23;0.90;;;;;;;;;;5051538;28;20212;-49
2023/12/26 04:33:59;;;;;;;3.67;1.30;;;;;;;;;;5051735;28;20545;-49
2023/12/26 04:36:25;;;;;;;3.57;1.20;;;;;;;;;;5051585;28;20211;-49
2023/12/26 04:38:51;;;;;;;2.80;1.13;;;;;;;;;;5051516;28;20246;-49
2023/12/26 04:41:19;;;;;;;3.30;1.57;;;;;;;;;;5051588;28;20589;-49
2023/12/26 04:43:44;;;;;;;2.00;1.20;;;;;;;;;;5051629;28;20669;-49
2023/12/26 04:46:18;;;;;;;3.23;1.50;;;;;;;;;;5051484;28;20228;-49
2023/12/26 04:48:44;;;;;;;1.53;1.20;;;;;;;;;;5051449;28;20716;-50
2023/12/26 04:51:15;;;;;;;3.50;1.47;;;;;;;;;;5051353;28;20685;-50
2023/12/26 04:53:41;;;;;;;4.33;1.50;;;;;;;;;;5051434;28;20203;-51
2023/12/26 04:56:07;;;;;;;4.70;1.43;;;;;;;;;;5051505;28;20247;-49
2023/12/26 04:58:34;;;;;;;5.67;1.70;;;;;;;;;;5051211;28;20208;-50
2023/12/26 05:01:00;;;;;;;5.73;1.77;;;;;;;;;;5051494;28;20209;-49
2023/12/26 05:03:26;;;;;;;4.83;1.60;;;;;;;;;;5051341;28;20609;-49
2023/12/26 05:05:52;;;;;;;4.47;1.57;;;;;;;;;;5051610;28;20234;-49
2023/12/26 05:08:18;;;;;;;3.27;1.97;;;;;;;;;;5051440;28;20199;-49
2023/12/26 05:10:44;;;;;;;3.70;1.50;;;;;;;;;;5051197;28;20725;-49
2023/12/26 05:13:10;;;;;;;5.37;1.60;;;;;;;;;;5051295;28;20204;-49
2023/12/26 05:15:37;;;;;;;1.70;1.53;;;;;;;;;;5051032;28;20232;-49
2023/12/26 05:18:04;;;;;;;4.10;1.47;;;;;;;;;;5051206;28;20250;-49
2023/12/26 05:20:30;;;;;;;3.17;1.40;;;;;;;;;;5053844;28;20203;-49
2023/12/26 05:22:56;;;;;;;2.43;1.27;;;;;;;;;;5055138;28;20204;-49
2023/12/26 05:25:23;;;;;;;4.13;1.77;;;;;;;;;;5055083;28;20286;-49
2023/12/26 05:27:49;;;;;;;3.60;1.50;;;;;;;;;;5055047;28;20662;-49
2023/12/26 05:30:15;;;;;;;7.27;2.00;;;;;;;;;;5055151;28;20235;-49
2023/12/26 05:32:42;;;;;;;4.37;1.60;;;;;;;;;;5055040;28;20201;-49
2023/12/26 05:35:08;;;;;;;5.67;1.60;;;;;;;;;;5055029;28;20693;-49
2023/12/26 05:37:34;;;;;;;6.63;1.67;;;;;;;;;;5055154;28;20239;-49
2023/12/26 05:40:00;;;;;;;5.03;1.63;;;;;;;;;;5054947;28;20654;-49
2023/12/26 05:42:26;;;;;;;4.13;1.80;;;;;;;;;;5055103;28;20203;-48
2023/12/26 05:44:52;;;;;;;3.93;1.67;;;;;;;;;;5054815;28;20195;-48
2023/12/26 05:47:20;;;;;;;3.13;1.60;;;;;;;;;;5054610;28;20278;-49
2023/12/26 05:49:47;;;;;;;5.40;1.60;;;;;;;;;;5054640;28;20694;-50
2023/12/26 05:52:13;;;;;;;3.37;1.50;;;;;;;;;;5054920;28;20208;-50
2023/12/26 05:54:40;;;;;;;3.80;1.60;;;;;;;;;;5044053;28;20662;-49
2023/12/26 05:57:06;;;;;;;3.77;1.40;;;;;;;;;;5046412;28;20417;-49
2023/12/26 05:59:32;;;;;;;7.20;1.60;;;;;;;;;;5046115;28;20527;-49
2023/12/26 06:01:58;;;;;;;2.27;1.20;;;;;;;;;;5044198;28;20207;-48
2023/12/26 06:04:24;;;;;;;6.30;1.60;;;;;;;;;;5049267;28;20209;-49
2023/12/26 06:06:51;;;;;;;3.47;1.33;;;;;;;;;;5045852;28;20243;-49
2023/12/26 06:09:17;;;;;;;4.33;1.60;;;;;;;;;;5043742;28;20693;-49
2023/12/26 06:11:43;;;;;;;4.93;1.80;;;;;;;;;;5045568;28;20213;-49
2023/12/26 06:14:09;;;;;;;5.33;1.80;;;;;;;;;;5042285;28;20196;-49
2023/12/26 06:16:35;;;;;;;7.00;2.10;;;;;;;;;;5045652;28;20697;-49
2023/12/26 06:19:01;;;;;;;6.17;1.80;;;;;;;;;;5045610;28;20216;-49
2023/12/26 06:21:27;;;;;;;6.13;1.80;;;;;;;;;;5047469;28;20642;-49
2023/12/26 06:23:55;;;;;;;9.97;2.03;;;;;;;;;;5043904;28;20401;-49
2023/12/26 06:26:21;;;;;;;8.50;2.50;;;;;;;;;;5046586;28;20235;-49
2023/12/26 06:28:47;;;;;;;7.87;1.70;;;;;;;;;;5023790;28;20216;-49
2023/12/26 06:31:14;;;;;;;7.73;2.10;;;;;;;;;;5023132;28;20691;-49
2023/12/26 06:33:40;;;;;;;3.97;1.80;;;;;;;;;;5025254;28;20205;-49
2023/12/26 06:36:06;;;;;;;7.77;2.10;;;;;;;;;;5025366;28;20203;-49
2023/12/26 06:38:32;;;;;;;7.07;1.97;;;;;;;;;;5025407;28;20204;-49
2023/12/26 06:40:59;;;;;;;8.23;2.30;;;;;;;;;;5024961;28;20291;-49
2023/12/26 06:43:25;;;;;;;7.33;2.70;;;;;;;;;;5023594;28;20200;-49
2023/12/26 06:45:51;;;;;;;7.53;2.10;;;;;;;;;;5021620;28;20601;-49
2023/12/26 06:48:17;;;;;;;6.70;1.90;;;;;;;;;;5026487;28;20204;-49
2023/12/26 06:50:43;;;;;;;5.73;2.03;;;;;;;;;;5023331;28;20231;-48
2023/12/26 06:53:09;;;;;;;7.10;1.70;;;;;;;;;;5030099;28;20201;-49
2023/12/26 06:55:35;;;;;;;7.27;2.03;;;;;;;;;;5023275;28;20562;-49
2023/12/26 06:58:04;;;;;;;8.50;2.73;;;;;;;;;;5026710;28;20207;-49
2023/12/26 07:00:30;;;;;;;2.63;1.40;;;;;;;;;;5029161;28;20203;-49
2023/12/26 07:02:56;;;;;;;4.63;2.00;;;;;;;;;;5040315;28;20200;-48
2023/12/26 07:05:22;;;;;;;7.50;2.10;;;;;;;;;;5042727;28;20620;-49
2023/12/26 07:07:48;;;;;;;8.80;1.87;;;;;;;;;;5043013;28;20204;-48
2023/12/26 07:10:14;;;;;;;5.50;1.90;;;;;;;;;;5043088;28;20274;-49
2023/12/26 07:12:40;;;;;;;4.87;1.60;;;;;;;;;;5042746;28;20196;-48
2023/12/26 07:15:09;;;;;;;3.23;1.63;;;;;;;;;;5042887;28;20208;-49
2023/12/26 07:17:35;;;;;;;5.30;2.17;;;;;;;;;;5046231;28;20220;-49
2023/12/26 07:20:01;;;;;;;4.93;1.77;;;;;;;;;;5044641;28;20204;-49
2023/12/26 07:22:27;;;;;;;3.93;1.40;;;;;;;;;;5044587;28;20242;-49
2023/12/26 07:24:53;;;;;;;6.67;2.13;;;;;;;;;;5042410;28;20908;-49
2023/12/26 07:27:18;;;;;;;6.13;2.30;;;;;;;;;;5042718;28;20201;-49
2023/12/26 07:29:44;;;;;;;5.67;2.13;;;;;;;;;;5043548;28;20274;-48
2023/12/26 07:32:12;;;;;;;6.03;1.70;;;;;;;;;;5045500;28;20231;-49
2023/12/26 07:34:40;;;;;;;7.40;1.77;;;;;;;;;;5052291;28;20517;-49
2023/12/26 07:37:07;;;;;;;5.97;2.00;;;;;;;;;;5050988;28;20582;-50
2023/12/26 07:39:33;;;;;;;6.03;1.97;;;;;;;;;;5045861;28;20280;-49
2023/12/26 07:42:00;;;;;;;8.37;1.90;;;;;;;;;;5045691;28;20254;-49
2023/12/26 07:44:26;;;;;;;11.47;2.57;;;;;;;;;;5042180;28;20208;-50
2023/12/26 07:46:52;;;;;;;6.67;1.70;;;;;;;;;;5043697;28;20236;-50
2023/12/26 07:49:19;;;;;;;4.50;1.80;;;;;;;;;;5045452;28;20219;-49
2023/12/26 07:51:45;;;;;;;9.00;2.33;;;;;;;;;;5045432;28;20686;-49
2023/12/26 07:54:11;;;;;;;4.47;1.77;;;;;;;;;;5043989;28;20315;-49
2023/12/26 07:56:38;;;;;;;10.40;2.23;;;;;;;;;;5047213;28;20196;-48
2023/12/26 07:59:04;;;;;;;4.17;1.80;;;;;;;;;;5043706;28;20233;-48
2023/12/26 08:01:31;;;;;;;9.00;1.90;;;;;;;;;;5048759;28;20224;-49
2023/12/26 08:03:57;;;;;;;6.00;2.13;;;;;;;;;;5041799;28;20287;-51
2023/12/26 08:06:24;;;;;;;8.40;2.37;;;;;;;;;;5043477;28;20192;-50
2023/12/26 08:08:51;;;;;;;5.50;2.17;;;;;;;;;;5045308;28;20204;-49
2023/12/26 08:11:17;;;;;;;4.60;2.23;;;;;;;;;;5040035;28;20274;-50
2023/12/26 08:13:44;;;;;;;7.87;2.80;;;;;;;;;;5045022;28;20696;-49
2023/12/26 08:16:10;;;;;;;7.40;2.10;;;;;;;;;;5041444;28;20224;-50
2023/12/26 08:18:36;;;;;;;7.63;1.93;;;;;;;;;;5041405;28;20262;-50
2023/12/26 08:21:03;;;;;;;5.90;1.73;;;;;;;;;;5044922;28;20188;-50
2023/12/26 08:23:30;;;;;;;3.30;1.60;;;;;;;;;;5044741;28;20612;-50
2023/12/26 08:25:56;;;;;;;5.20;1.70;;;;;;;;;;5041335;28;20214;-51
2023/12/26 08:28:22;;;;;;;4.13;1.80;;;;;;;;;;5044598;28;20192;-50
2023/12/26 08:30:48;;;;;;;4.03;1.70;;;;;;;;;;5044578;28;20819;-49
2023/12/26 08:33:17;;;;;;;3.83;1.70;;;;;;;;;;5043197;28;20199;-49
2023/12/26 08:35:43;;;;;;;3.93;1.70;;;;;;;;;;5043029;28;20664;-50
2023/12/26 08:38:09;;;;;;;4.60;2.10;;;;;;;;;;5042524;28;20223;-49
2023/12/26 08:40:36;;;;;;;4.30;1.80;;;;;;;;;;5044597;28;20200;-50
2023/12/26 08:43:05;;;;;;;6.37;2.20;;;;;;;;;;5042445;28;20211;-51
2023/12/26 08:45:32;;;;;;;5.93;2.00;;;;;;;;;;5037716;28;20295;-50
2023/12/26 08:47:59;;;;;;;3.40;1.70;;;;;;;;;;5044604;28;20200;-50
2023/12/26 08:50:25;;;;;;;4.77;1.90;;;;;;;;;;5044501;28;20216;-49
2023/12/26 08:52:51;;;;;;;7.80;1.80;;;;;;;;;;5042808;28;20201;-51
2023/12/26 08:55:17;;;;;;;7.57;2.10;;;;;;;;;;5038984;28;20196;-49
2023/12/26 08:57:44;;;;;;;10.03;2.97;;;;;;;;;;5042923;28;20246;-49
2023/12/26 09:00:13;;;;;;;6.10;2.20;;;;;;;;;;5042315;28;20568;-48
2023/12/26 09:02:40;;;;;;;5.47;1.70;;;;;;;;;;5037702;28;20279;-48
2023/12/26 09:05:07;;;;;;;4.47;1.67;;;;;;;;;;5040794;28;20381;-48
2023/12/26 09:07:33;;;;;;;3.80;1.83;;;;;;;;;;5046375;28;20214;-49
2023/12/26 09:10:00;;;;;;;6.10;2.00;;;;;;;;;;5044360;28;20231;-49
2023/12/26 09:12:29;;;;;;;5.40;1.87;;;;;;;;;;5046304;28;20210;-49
2023/12/26 09:14:56;;;;;;;3.73;1.70;;;;;;;;;;5044457;28;20200;-50
2023/12/26 09:17:22;;;;;;;3.57;1.73;;;;;;;;;;5040927;28;20231;-49
2023/12/26 09:19:48;;;;;;;3.60;2.00;;;;;;;;;;5049515;28;20706;-50
2023/12/26 09:22:15;;;;;;;5.73;2.30;;;;;;;;;;5051442;28;20199;-50
2023/12/26 09:24:42;;;;;;;5.37;1.80;;;;;;;;;;5051278;28;20258;-50
2023/12/26 09:27:08;;;;;;;6.03;1.80;;;;;;;;;;5051119;28;20224;-51
2023/12/26 09:29:34;;;;;;;4.53;2.17;;;;;;;;;;5051174;28;20255;-50
2023/12/26 09:32:02;;;;;;;5.27;2.00;;;;;;;;;;5051383;28;20300;-49
2023/12/26 09:34:28;;;;;;;8.23;1.90;;;;;;;;;;5051403;28;20197;-50
2023/12/26 09:36:54;;;;;;;5.13;1.77;;;;;;;;;;5052489;28;20571;-51
2023/12/26 09:39:20;;;;;;;6.77;2.00;;;;;;;;;;5070969;28;20206;-49
2023/12/26 09:41:51;;;;;;;7.67;1.83;;;;;;;;;;5063686;28;20210;-50
2023/12/26 09:44:17;;;;;;;4.27;1.70;;;;;;;;;;5049386;28;20655;-49
2023/12/26 09:46:43;;;;;;;5.60;2.30;;;;;;;;;;5068630;28;20231;-50
2023/12/26 09:49:11;;;;;;;8.30;2.60;;;;;;;;;;5070786;28;20203;-50
2023/12/26 09:51:37;;;;;;;5.00;2.33;;;;;;;;;;5071032;28;20215;-50
2023/12/26 09:54:04;;;;;;;3.57;1.87;;;;;;;;;;5070826;28;20669;-50
2023/12/26 09:56:32;;;;;;;5.73;2.03;;;;;;;;;;5071170;28;20325;-49
2023/12/26 09:59:01;;;;;;;5.40;1.97;;;;;;;;;;5070893;28;20286;-49
2023/12/26 10:01:27;;;;;;;6.80;2.10;;;;;;;;;;5071032;28;20195;-50
2023/12/26 10:03:55;;;;;;;5.90;2.13;;;;;;;;;;5070563;28;20646;-50
2023/12/26 10:06:22;;;;;;;7.53;2.17;;;;;;;;;;5071437;28;20207;-51
2023/12/26 10:08:48;;;;;;;6.17;1.90;;;;;;;;;;5074284;28;20208;-50
2023/12/26 10:11:15;;;;;;;6.03;2.10;;;;;;;;;;5074548;28;20219;-51
2023/12/26 10:13:49;;;;;;;4.87;1.97;;;;;;;;;;5074390;28;20204;-50
2023/12/26 10:16:15;;;;;;;7.47;2.23;;;;;;;;;;5074599;28;20294;-51
2023/12/26 10:18:41;;;;;;;8.37;2.30;;;;;;;;;;5074426;28;20207;-51
2023/12/26 10:21:07;;;;;;;5.47;1.93;;;;;;;;;;5074529;28;20203;-51
2023/12/26 10:23:35;;;;;;;8.13;2.57;;;;;;;;;;5074251;28;20205;-50
2023/12/26 10:26:01;;;;;;;11.00;2.63;;;;;;;;;;5074050;28;20199;-51
2023/12/26 10:28:27;;;;;;;9.13;2.03;;;;;;;;;;5072382;28;20290;-50
2023/12/26 10:30:53;;;;;;;10.00;2.40;;;;;;;;;;5074153;28;20219;-51
2023/12/26 10:33:25;;;;;;;5.97;2.03;;;;;;;;;;5068079;28;20651;-49
2023/12/26 10:36:01;;;;;;;7.40;2.23;;;;;;;;;;5051014;28;20220;-49
2023/12/26 10:38:27;;;;;;;7.20;2.10;;;;;;;;;;5054385;28;20216;-49
2023/12/26 10:40:56;;;;;;;7.07;2.23;;;;;;;;;;5054135;28;20193;-49
2023/12/26 10:43:22;;;;;;;10.53;2.40;;;;;;;;;;5054154;28;20227;-49
2023/12/26 10:45:49;;;;;;;7.97;3.00;;;;;;;;;;5053753;28;20243;-50
2023/12/26 10:48:15;;;;;;;9.77;2.23;;;;;;;;;;5054010;28;20207;-49
2023/12/26 10:50:41;;;;;;;9.97;2.40;;;;;;;;;;5053912;28;20358;-49
2023/12/26 10:53:18;;;;;;;7.23;2.33;;;;;;;;;;5053600;28;20200;-49
2023/12/26 10:55:45;;;;;;;6.93;2.00;;;;;;;;;;5053899;28;20258;-50
2023/12/26 10:58:12;;;;;;;10.03;4.00;;;;;;;;;;5072443;28;20294;-50
2023/12/26 11:00:40;;;;;;;6.63;2.13;;;;;;;;;;5073872;28;20242;-50
2023/12/26 11:03:06;;;;;;;7.90;2.03;;;;;;;;;;5073535;28;20209;-50
2023/12/26 11:05:32;;;;;;;6.83;2.10;;;;;;;;;;5073876;28;20202;-50
2023/12/26 11:07:58;;;;;;;10.03;2.43;;;;;;;;;;5073340;28;20223;-50
2023/12/26 11:10:25;;;;;;;7.80;2.47;;;;;;;;;;5073185;28;20334;-50
2023/12/26 11:12:51;;;;;;;5.33;1.97;;;;;;;;;;5073482;28;20709;-50
2023/12/26 11:15:18;;;;;;;5.40;2.03;;;;;;;;;;5072896;28;20203;-50
2023/12/26 11:17:44;;;;;;;7.60;2.40;;;;;;;;;;5072671;28;20596;-49
2023/12/26 11:20:10;;;;;;;7.13;1.97;;;;;;;;;;5051918;28;20208;-50
2023/12/26 11:22:36;;;;;;;9.43;2.67;;;;;;;;;;5052951;28;20212;-50
2023/12/26 11:25:02;;;;;;;8.27;1.97;;;;;;;;;;5052693;28;20270;-50
2023/12/26 11:27:28;;;;;;;8.63;2.10;;;;;;;;;;5053050;28;20694;-50
2023/12/26 11:29:54;;;;;;;5.33;2.07;;;;;;;;;;5052805;28;20259;-50
2023/12/26 11:32:22;;;;;;;9.47;2.63;;;;;;;;;;5052390;28;20204;-50
2023/12/26 11:34:48;;;;;;;9.70;2.90;;;;;;;;;;5052938;28;20295;-50
2023/12/26 11:37:14;;;;;;;9.73;2.57;;;;;;;;;;5052858;28;20651;-51
2023/12/26 11:39:40;;;;;;;8.03;2.33;;;;;;;;;;5052888;28;20200;-50
2023/12/26 11:42:06;;;;;;;6.30;2.00;;;;;;;;;;5052828;28;20204;-50
2023/12/26 11:44:32;;;;;;;7.50;2.73;;;;;;;;;;5052996;28;20208;-51
2023/12/26 11:46:58;;;;;;;7.03;2.20;;;;;;;;;;5062838;28;20241;-50
2023/12/26 11:49:25;;;;;;;8.13;2.23;;;;;;;;;;5072663;28;20265;-51
2023/12/26 11:51:51;;;;;;;7.73;2.10;;;;;;;;;;5072571;28;20204;-51
2023/12/26 11:54:17;;;;;;;6.13;2.13;;;;;;;;;;5072466;28;20207;-51
2023/12/26 11:56:43;;;;;;;5.40;2.40;;;;;;;;;;5072807;28;20282;-50
2023/12/26 11:59:09;;;;;;;9.17;3.53;;;;;;;;;;5072585;28;20286;-52
2023/12/26 12:01:35;;;;;;;7.43;2.27;;;;;;;;;;5072347;28;20250;-49
2023/12/26 12:04:01;;;;;;;5.87;1.90;;;;;;;;;;5072463;28;20223;-51
2023/12/26 12:06:28;;;;;;;6.67;2.17;;;;;;;;;;5072139;28;20188;-52
2023/12/26 12:09:03;;;;;;;10.77;2.10;;;;;;;;;;5072017;28;20204;-52
2023/12/26 12:11:29;;;;;;;6.57;2.17;;;;;;;;;;5072170;28;20689;-52
2023/12/26 12:13:55;;;;;;;7.63;2.20;;;;;;;;;;5072142;28;20210;-52
2023/12/26 12:16:22;;;;;;;6.10;2.20;;;;;;;;;;5072236;28;20246;-51
2023/12/26 12:18:56;;;;;;;7.63;2.37;;;;;;;;;;5072309;28;20286;-51
2023/12/26 12:21:22;;;;;;;6.77;2.10;;;;;;;;;;5072156;28;20202;-51
2023/12/26 12:23:49;;;;;;;5.50;2.30;;;;;;;;;;5071613;28;20203;-51
2023/12/26 12:26:15;;;;;;;8.33;2.63;;;;;;;;;;5071574;28;20214;-52
2023/12/26 12:29:02;;;;;;;5.27;2.17;;;;;;;;;;5071511;28;20638;-51
2023/12/26 12:31:28;;;;;;;5.17;2.00;;;;;;;;;;5071829;28;20265;-51
2023/12/26 12:34:08;;;;;;;8.70;2.47;;;;;;;;;;5071475;28;20199;-51
2023/12/26 12:36:34;;;;;;;7.40;2.30;;;;;;;;;;5071565;28;20677;-51
2023/12/26 12:39:02;;;;;;;7.23;2.43;;;;;;;;;;5071582;28;20210;-51
2023/12/26 12:41:28;;;;;;;8.00;2.73;;;;;;;;;;5071121;28;20207;-51
2023/12/26 12:43:55;;;;;;;4.13;1.77;;;;;;;;;;5071495;28;20199;-51
2023/12/26 12:46:21;;;;;;;10.17;2.90;;;;;;;;;;5071634;28;20293;-51
2023/12/26 12:48:48;;;;;;;9.27;2.40;;;;;;;;;;5071750;28;20208;-51
2023/12/26 12:51:14;;;;;;;6.30;2.70;;;;;;;;;;5071744;28;20235;-51
2023/12/26 12:53:40;;;;;;;6.37;2.00;;;;;;;;;;5071665;28;20199;-51
2023/12/26 12:56:08;;;;;;;6.80;2.67;;;;;;;;;;5071625;28;20602;-52
2023/12/26 12:58:33;;;;;;;11.67;2.50;;;;;;;;;;5071387;28;20257;-51
2023/12/26 13:01:00;;;;;;;6.00;2.17;;;;;;;;;;5071723;28;20669;-51
2023/12/26 13:03:26;;;;;;;8.27;2.47;;;;;;;;;;5071649;28;20283;-51
2023/12/26 13:05:52;;;;;;;8.50;3.33;;;;;;;;;;5070988;28;20286;-51
2023/12/26 13:08:18;;;;;;;6.43;2.40;;;;;;;;;;5070982;28;20188;-51
2023/12/26 13:10:44;;;;;;;4.30;1.73;;;;;;;;;;5071306;28;20586;-51
2023/12/26 13:13:11;;;;;;;7.37;2.27;;;;;;;;;;5071479;28;20218;-50
2023/12/26 13:15:38;;;;;;;8.33;2.40;;;;;;;;;;5054686;28;20212;-51
2023/12/26 13:18:04;;;;;;;7.53;2.13;;;;;;;;;;5044404;28;20228;-49
2023/12/26 13:20:30;;;;;;;7.50;2.20;;;;;;;;;;5041400;28;20571;-50
2023/12/26 13:22:56;;;;;;;4.33;1.90;;;;;;;;;;5031820;28;20204;-49
2023/12/26 13:25:22;;;;;;;7.03;2.30;;;;;;;;;;5031150;28;20295;-50
2023/12/26 13:27:48;;;;;;;10.17;2.80;;;;;;;;;;5031642;28;20201;-49
2023/12/26 13:30:22;;;;;;;6.37;2.00;;;;;;;;;;5037151;28;20501;-50
2023/12/26 13:32:48;;;;;;;7.10;2.23;;;;;;;;;;5071363;28;20570;-50
2023/12/26 13:35:14;;;;;;;7.10;2.20;;;;;;;;;;5071101;28;20226;-50
2023/12/26 13:37:40;;;;;;;8.90;2.70;;;;;;;;;;5067137;28;20200;-50
2023/12/26 13:40:06;;;;;;;7.20;1.90;;;;;;;;;;5065035;28;20188;-49
2023/12/26 13:42:32;;;;;;;8.00;2.07;;;;;;;;;;5073022;28;20688;-49
2023/12/26 13:44:58;;;;;;;11.10;2.30;;;;;;;;;;5071545;28;20199;-50
2023/12/26 13:47:25;;;;;;;8.73;2.57;;;;;;;;;;5072695;28;20318;-50
2023/12/26 13:49:51;;;;;;;9.60;2.53;;;;;;;;;;5074775;28;20220;-50
2023/12/26 13:52:17;;;;;;;7.37;2.20;;;;;;;;;;5074453;28;20207;-50
2023/12/26 13:54:43;;;;;;;9.00;2.70;;;;;;;;;;5073078;28;20261;-50
2023/12/26 13:57:09;;;;;;;12.60;3.03;;;;;;;;;;5074725;28;20254;-50
2023/12/26 13:59:35;;;;;;;5.77;2.27;;;;;;;;;;5074663;28;20196;-50
2023/12/26 14:02:01;;;;;;;7.57;2.90;;;;;;;;;;5071404;28;20655;-50
2023/12/26 14:04:28;;;;;;;8.80;2.27;;;;;;;;;;5074724;28;20302;-50
2023/12/26 14:06:54;;;;;;;8.00;2.70;;;;;;;;;;5071265;28;20313;-50
2023/12/26 14:09:20;;;;;;;9.60;2.10;;;;;;;;;;5069261;28;20226;-49
2023/12/26 14:11:46;;;;;;;7.17;2.67;;;;;;;;;;5072767;28;20721;-50
2023/12/26 14:14:12;;;;;;;9.17;2.33;;;;;;;;;;5072512;28;20225;-49
2023/12/26 14:16:38;;;;;;;4.07;1.73;;;;;;;;;;5074478;28;20219;-49
2023/12/26 14:19:04;;;;;;;5.90;2.53;;;;;;;;;;5070848;28;20559;-49
2023/12/26 14:21:32;;;;;;;12.07;2.63;;;;;;;;;;5065678;28;20283;-48
2023/12/26 14:23:58;;;;;;;4.10;1.90;;;;;;;;;;5074060;28;20206;-49
2023/12/26 14:26:24;;;;;;;5.87;2.10;;;;;;;;;;5069181;28;20200;-49
2023/12/26 14:28:50;;;;;;;5.77;2.10;;;;;;;;;;5069029;28;20211;-49
2023/12/26 14:31:16;;;;;;;5.70;1.70;;;;;;;;;;5059134;28;20281;-49
2023/12/26 14:33:42;;;;;;;9.77;3.20;;;;;;;;;;5073689;28;20560;-48
2023/12/26 14:36:08;;;;;;;5.30;1.80;;;;;;;;;;5072107;28;20195;-48
2023/12/26 14:38:35;;;;;;;7.03;2.40;;;;;;;;;;5066799;28;20199;-48